Time;durP1;ratioP1;P1;durP2;ratioP2;P2;SDS_P1;SDS_P2;PMS_P1;PMS_P2;Temp;Humidity;BMP_temperature;BMP_pressure;BME280_temperature;BME280_humidity;BME280_pressure;Samples;Min_cycle;Max_cycle;Signal;HPM_P1;HPM_P2
2022/11/01 06:35:49;;;;;;;;;;;;;;;20.18;61.61;99683.27;1961106;72;20183;-78
2022/11/01 06:38:36;;;;;;;;;;;;;;;20.52;61.04;99685.69;1919222;74;20178;-79
2022/11/01 06:41:23;;;;;;;;;;;;;;;21.30;59.39;99690.43;1895672;75;20230;-77
2022/11/01 06:44:11;;;;;;;;;;;;;;;21.98;57.80;99693.52;1876828;75;20206;-77
2022/11/01 06:46:59;;;;;;;;;;;;;;;22.53;56.31;99697.66;1885365;75;20184;-80
2022/11/01 06:49:46;;;;;;;;;;;;;;;23.00;55.18;99700.98;1886283;75;20238;-73
2022/11/01 06:52:33;;;;;;;;;;;;;;;23.39;54.12;99707.80;1907346;75;20184;-80
2022/11/01 06:55:21;;;;;;;;;;;;;;;23.68;53.12;99709.66;1879984;75;20187;-79
2022/11/01 06:58:08;;;;;;;;;;;;;;;23.88;52.32;99713.41;1887917;75;20164;-80
2022/11/01 07:00:56;;;;;;;;;;;;;;;24.09;51.59;99716.98;1876523;75;20119;-81
2022/11/01 07:03:43;;;;;;;;;;;;;;;24.27;50.95;99724.27;1891560;73;20237;-85
2022/11/01 07:06:31;;;;;;;;;;;;;;;24.41;50.51;99725.69;1886791;75;20230;-83
2022/11/01 07:09:19;;;;;;;;;;;;;;;24.52;50.13;99724.29;1880532;75;20174;-87
2022/11/01 07:12:06;;;;;;;;;;;;;;;24.61;49.79;99728.33;1888197;75;20159;-81
2022/11/01 07:14:53;;;;;;;;;;;;;;;24.73;49.48;99730.52;1896995;75;20119;-83
2022/11/01 07:17:41;;;;;;;;;;;;;;;24.90;49.50;99732.53;1896069;74;20149;-82
2022/11/01 07:20:29;;;;;;;;;;;;;;;25.00;49.34;99741.80;1913956;73;20139;-81
2022/11/01 07:23:17;;;;;;;;;;;;;;;25.06;49.09;99740.84;1892041;75;20245;-82
2022/11/01 07:26:04;;;;;;;;;;;;;;;25.08;48.85;99748.30;1890022;73;20166;-82
2022/11/01 07:28:52;;;;;;;;;;;;;;;25.13;48.51;99736.56;1882463;75;20188;-84
2022/11/01 07:31:40;;;;;;;;;;;;;;;25.17;48.28;99733.08;1890877;75;20209;-83
2022/11/01 07:34:27;;;;;;;;;;;;;;;25.23;48.09;99738.11;1888821;75;20204;-82
2022/11/01 07:37:14;;;;;;;;;;;;;;;25.25;47.96;99738.16;1897698;75;20237;-83
2022/11/01 07:40:03;;;;;;;;;;;;;;;25.25;47.83;99729.91;1893316;73;20156;-83
2022/11/01 07:42:50;;;;;;;;;;;;;;;25.26;47.74;99734.34;1888078;75;20164;-83
2022/11/01 07:45:37;;;;;;;;;;;;;;;25.24;47.65;99739.26;1896180;75;20213;-82
2022/11/01 07:48:27;;;;;;;;;;;;;;;25.29;47.43;99741.27;1893167;75;20142;-82
2022/11/01 07:51:14;;;;;;;;;;;;;;;25.29;47.32;99748.14;1881516;75;20166;-82
2022/11/01 07:54:01;;;;;;;;;;;;;;;25.31;47.23;99759.73;1887075;75;20179;-82
2022/11/01 07:56:49;;;;;;;;;;;;;;;25.31;47.10;99756.44;1885988;74;20179;-82
2022/11/01 07:59:36;;;;;;;;;;;;;;;25.30;47.01;99761.63;1884236;75;20280;-83
2022/11/01 08:02:24;;;;;;;;;;;;;;;25.38;46.83;99776.91;1893648;74;20194;-83
2022/11/01 08:05:11;;;;;;;;;;;;;;;25.44;46.78;99780.64;1884675;75;20123;-84
2022/11/01 08:07:59;;;;;;;;;;;;;;;25.48;46.66;99785.93;1882139;74;20189;-84
2022/11/01 08:10:47;;;;;;;;;;;;;;;25.49;46.58;99788.95;1887183;74;20224;-83
2022/11/01 08:13:34;;;;;;;;;;;;;;;25.50;46.57;99789.27;1900081;75;20123;-82
2022/11/01 08:16:22;;;;;;;;;;;;;;;25.53;46.53;99796.50;1885663;75;20150;-82
2022/11/01 08:19:10;;;;;;;;;;;;;;;25.55;46.45;99792.95;1898288;75;20156;-83
2022/11/01 08:21:58;;;;;;;;;;;;;;;25.60;46.35;99791.65;1884621;75;20146;-82
2022/11/01 08:24:45;;;;;;;;;;;;;;;25.57;46.26;99799.05;1894107;75;20247;-82
2022/11/01 08:27:33;;;;;;;;;;;;;;;25.54;46.17;99798.69;1880109;75;20266;-82
2022/11/01 08:30:21;;;;;;;;;;;;;;;25.53;46.11;99802.00;1889921;75;20273;-82
2022/11/01 08:33:09;;;;;;;;;;;;;;;25.54;46.07;99809.16;1887506;75;20201;-82
2022/11/01 08:35:56;;;;;;;;;;;;;;;25.56;46.02;99800.64;1887300;75;20154;-82
2022/11/01 08:38:44;;;;;;;;;;;;;;;25.59;45.93;99810.63;1884918;75;20123;-82
2022/11/01 08:41:31;;;;;;;;;;;;;;;25.55;45.90;99808.09;1892928;74;20117;-85
2022/11/01 08:44:19;;;;;;;;;;;;;;;25.53;45.94;99803.37;1886402;75;20245;-84
2022/11/01 08:47:06;;;;;;;;;;;;;;;25.57;45.90;99805.08;1891633;75;20360;-84
2022/11/01 08:49:54;;;;;;;;;;;;;;;25.54;46.08;99802.28;1882081;75;20154;-85
2022/11/01 08:52:42;;;;;;;;;;;;;;;25.57;46.13;99803.17;1893282;74;20178;-88
2022/11/01 08:55:29;;;;;;;;;;;;;;;25.59;46.27;99802.37;1887866;74;20230;-85
2022/11/01 08:58:19;;;;;;;;;;;;;;;25.60;46.44;99801.28;1881445;75;20248;-85
2022/11/01 09:01:06;;;;;;;;;;;;;;;25.62;46.38;99796.39;1893478;75;20202;-86
2022/11/01 09:04:00;;;;;;;;;;;;;;;25.61;46.69;99797.99;1890979;75;20204;-88
2022/11/01 09:06:47;;;;;;;;;;;;;;;25.66;46.66;99796.72;1881341;74;20256;-84
2022/11/01 09:09:37;;;;;;;;;;;;;;;25.67;47.05;99803.34;1896590;75;20356;-84
2022/11/01 09:12:28;;;;;;;;;;;;;;;25.71;47.81;99801.78;1888426;74;20170;-83
2022/11/01 09:19:03;;;;;;;;;;;;;;;25.50;48.83;99797.52;1935380;72;20250;-81
2022/11/01 09:21:50;;;;;;;;;;;;;;;25.12;48.73;99797.57;1892760;74;20206;-84
2022/11/01 09:24:43;;;;;;;;;;;;;;;25.25;48.80;99802.77;1889222;75;20114;-83
2022/11/01 09:27:26;;;;;;;;;;;;;;;25.36;48.81;99807.42;1894726;75;20111;-83
2022/11/01 09:30:16;;;;;;;;;;;;;;;25.46;48.92;99808.73;1890905;75;20120;-83
2022/11/01 09:33:04;;;;;;;;;;;;;;;25.52;49.08;99809.11;1890559;75;20161;-82
2022/11/01 09:35:55;;;;;;;;;;;;;;;25.57;49.39;99801.80;1896071;75;20194;-82
2022/11/01 09:38:43;;;;;;;;;;;;;;;25.61;49.30;99802.96;1889110;75;20155;-83
2022/11/01 09:41:32;;;;;;;;;;;;;;;25.62;49.48;99804.64;1894617;73;20164;-82
2022/11/01 09:44:21;;;;;;;;;;;;;;;25.69;50.21;99795.70;1886744;75;20264;-83
2022/11/01 09:47:10;;;;;;;;;;;;;;;25.74;50.66;99801.27;1885006;75;20262;-83
2022/11/01 09:50:01;;;;;;;;;;;;;;;25.78;50.99;99805.75;1885073;75;20187;-82
2022/11/01 09:52:50;;;;;;;;;;;;;;;25.78;51.11;99797.48;1891582;75;20210;-78
2022/11/01 09:55:45;;;;;;;;;;;;;;;25.91;51.39;99809.55;1888804;73;20231;-79
2022/11/01 10:48:55;;;;;;;;;;;;;;;20.86;58.63;99825.63;1951677;72;20247;-81
2022/11/01 10:51:43;;;;;;;;;;;;;;;21.28;58.70;99829.16;1920507;73;20153;-80
2022/11/01 10:54:32;;;;;;;;;;;;;;;22.17;57.17;99831.74;1929190;73;20169;-83
2022/11/01 10:57:21;;;;;;;;;;;;;;;22.86;56.11;99828.75;1920820;75;20143;-81
2022/11/01 11:00:10;;;;;;;;;;;;;;;23.46;55.88;99830.53;1933102;73;20124;-88
2022/11/01 11:02:59;;;;;;;;;;;;;;;23.90;55.82;99826.50;1921254;73;20126;-88
2022/11/01 11:05:48;;;;;;;;;;;;;;;24.34;56.72;99819.14;1921273;73;20176;-81
2022/11/01 11:08:36;;;;;;;;;;;;;;;24.73;57.78;99819.80;1921041;75;20149;-84
2022/11/01 11:11:25;;;;;;;;;;;;;;;25.02;57.98;99811.66;1922418;73;20169;-87
2022/11/01 11:14:14;;;;;;;;;;;;;;;25.22;57.30;99813.44;1922505;73;20126;-88
2022/11/01 11:17:02;;;;;;;;;;;;;;;25.39;56.71;99807.47;1922468;73;20112;-87
2022/11/01 11:19:54;;;;;;;;;;;;;;;25.47;55.96;99808.47;1921298;73;20216;-85
2022/11/01 11:22:42;;;;;;;;;;;;;;;25.56;54.14;99808.36;1933214;73;20174;-83
2022/11/01 11:25:31;;;;;;;;;;;;;;;25.56;51.83;99802.86;1921290;73;20209;-84
2022/11/01 11:28:20;;;;;;;;;;;;;;;25.55;50.27;99798.99;1917598;73;20182;-83
2022/11/01 11:31:17;;;;;;;;;;;;;;;25.53;49.36;99791.53;1928185;73;20206;-86
2022/11/01 11:34:21;;;;;;;;;;;;;;;25.45;48.38;99787.79;1854846;76;20119;-83
2022/11/01 11:37:09;;;;;;;;;;;;;;;25.41;47.85;99784.68;1872688;76;20178;-79
2022/11/01 11:40:14;;;;;;;;;;;;;;;25.37;47.64;99773.32;1850393;76;20161;-79
2022/11/01 11:43:21;;;;;;;;;;;;;;;25.35;47.24;99779.61;1865940;76;20233;-78
2022/11/01 11:46:20;;;;;;;;;;;;;;;25.32;46.95;99766.34;1864961;76;20160;-84
2022/11/01 11:49:06;;;;;;;;;;;;;;;25.32;46.70;99762.22;1856302;76;20194;-81
2022/11/01 11:51:55;;;;;;;;;;;;;;;25.31;46.39;99759.19;1856482;76;20163;-79
2022/11/01 11:54:43;;;;;;;;;;;;;;;25.35;46.10;99760.89;1858798;77;20211;-83
2022/11/01 11:57:31;;;;;;;;;;;;;;;25.35;45.89;99756.23;1862200;76;20119;-80
2022/11/01 12:00:23;;;;;;;;;;;;;;;25.37;45.63;99752.69;1866649;76;20117;-79
2022/11/01 12:03:13;;;;;;;;;;;;;;;25.34;45.52;99743.55;1879895;75;20154;-79
2022/11/01 12:06:02;;;;;;;;;;;;;;;25.36;45.41;99735.08;1871046;76;20206;-79
2022/11/01 12:08:50;;;;;;;;;;;;;;;25.32;45.51;99735.28;1856762;76;20230;-79
2022/11/01 12:11:42;;;;;;;;;;;;;;;25.33;45.42;99732.81;1848051;76;20221;-79
2022/11/01 12:14:31;;;;;;;;;;;;;;;25.31;45.37;99726.73;1892766;75;20169;-80
2022/11/01 12:17:40;;;;;;;;;;;;;;;25.27;45.45;99720.91;1887931;76;20242;-81
2022/11/01 12:20:25;;;;;;;;;;;;;;;25.30;45.56;99721.77;1885140;75;20172;-81
